createdAt,value
2022-09-20T00:01:13.677Z,1.30
2022-09-20T00:03:42.222Z,1.30
2022-09-20T00:06:10.311Z,1.40
2022-09-20T00:08:37.355Z,1.30
2022-09-20T00:11:15.441Z,1.10
2022-09-20T00:13:43.359Z,1.30
2022-09-20T00:16:12.125Z,1.50
2022-09-20T00:18:39.719Z,1.42
2022-09-20T00:21:06.695Z,1.23
2022-09-20T00:23:33.784Z,1.02
2022-09-20T00:26:01.603Z,1.20
2022-09-20T00:28:28.735Z,1.40
2022-09-20T00:30:55.923Z,1.30
2022-09-20T00:33:23.817Z,1.40
2022-09-20T00:35:50.679Z,1.30
2022-09-20T00:38:17.598Z,1.40
2022-09-20T00:40:44.738Z,1.15
2022-09-20T00:43:17.842Z,1.20
2022-09-20T00:45:45.375Z,1.30
2022-09-20T00:48:15.739Z,1.15
2022-09-20T00:50:47.508Z,1.33
2022-09-20T00:53:45.206Z,1.27
2022-09-20T00:56:21.581Z,1.40
2022-09-20T00:58:56.790Z,1.45
2022-09-20T01:01:23.836Z,1.15
2022-09-20T01:03:50.769Z,1.30
2022-09-20T01:06:17.646Z,1.35
2022-09-20T01:08:47.768Z,1.25
2022-09-20T01:11:14.586Z,1.20
2022-09-20T01:13:41.408Z,1.30
2022-09-20T01:16:08.704Z,1.30
2022-09-20T01:18:35.666Z,1.40
2022-09-20T01:21:02.566Z,1.40
2022-09-20T01:23:41.511Z,1.27
2022-09-20T01:26:17.205Z,1.17
2022-09-20T01:28:45.392Z,1.40
2022-09-20T01:31:36.035Z,1.20
2022-09-20T01:34:09.740Z,1.40
2022-09-20T01:36:44.881Z,1.35
2022-09-20T01:39:20.699Z,1.00
2022-09-20T01:41:58.832Z,1.23
2022-09-20T01:44:49.860Z,1.25
2022-09-20T01:47:43.053Z,1.30
2022-09-20T01:50:09.885Z,1.30
2022-09-20T01:52:55.184Z,1.42
2022-09-20T01:55:59.181Z,1.30
2022-09-20T01:58:57.445Z,1.40
2022-09-20T02:01:41.743Z,1.10
2022-09-20T02:04:27.268Z,1.30
2022-09-20T02:06:59.909Z,1.42
2022-09-20T02:09:57.094Z,1.13
2022-09-20T02:12:33.818Z,1.23
2022-09-20T02:15:19.009Z,1.08
2022-09-20T02:18:23.974Z,1.27
2022-09-20T02:21:29.573Z,1.40
2022-09-20T02:24:00.649Z,1.20
2022-09-20T02:26:36.329Z,1.13
2022-09-20T02:29:40.625Z,1.20
2022-09-20T02:33:00.106Z,1.30
2022-09-20T02:35:48.222Z,1.30
2022-09-20T02:38:45.548Z,1.25
2022-09-20T02:41:30.661Z,1.30
2022-09-20T02:44:05.647Z,1.10
2022-09-20T02:46:41.999Z,1.40
2022-09-20T02:49:22.047Z,1.17
2022-09-20T02:51:53.920Z,1.17
2022-09-20T02:54:43.392Z,1.30
2022-09-20T02:57:38.017Z,1.17
2022-09-20T03:00:22.377Z,1.10
2022-09-20T03:03:16.096Z,1.40
2022-09-20T03:06:06.389Z,1.20
2022-09-20T03:09:05.690Z,1.33
2022-09-20T03:11:44.169Z,1.40
2022-09-20T03:14:18.949Z,1.20
2022-09-20T03:16:57.842Z,1.30
2022-09-20T03:19:33.650Z,1.27
2022-09-20T03:22:37.662Z,1.10
2022-09-20T03:25:07.525Z,1.15
2022-09-20T03:27:37.143Z,1.20
2022-09-20T03:30:28.910Z,1.30
2022-09-20T03:33:20.741Z,1.00
2022-09-20T03:36:08.682Z,1.10
2022-09-20T03:38:52.759Z,1.20
2022-09-20T03:41:31.579Z,1.20
2022-09-20T03:44:10.914Z,1.20
2022-09-20T03:46:47.482Z,1.17
2022-09-20T03:49:43.582Z,1.08
2022-09-20T03:52:29.950Z,1.30
2022-09-20T03:55:26.450Z,1.77
2022-09-20T03:58:22.066Z,1.52
2022-09-20T04:01:12.056Z,1.52
2022-09-20T04:03:49.714Z,2.38
2022-09-20T04:06:27.297Z,1.70
2022-09-20T04:09:09.320Z,2.00
2022-09-20T04:12:03.387Z,2.13
2022-09-20T04:14:52.174Z,2.00
2022-09-20T04:18:06.463Z,2.05
2022-09-20T04:20:36.486Z,1.98
2022-09-20T04:23:12.189Z,2.20
2022-09-20T04:25:43.735Z,1.40
2022-09-20T04:28:46.420Z,1.83
2022-09-20T04:31:45.756Z,1.42
2022-09-20T04:34:45.528Z,1.50
2022-09-20T04:37:27.442Z,1.92
2022-09-20T04:40:13.935Z,1.40
2022-09-20T04:42:46.808Z,1.50
2022-09-20T04:45:22.636Z,1.63
2022-09-20T04:48:13.764Z,1.90
2022-09-20T04:51:14.147Z,1.67
2022-09-20T04:53:53.105Z,1.83
2022-09-20T04:56:21.544Z,1.88
2022-09-20T04:58:48.960Z,2.05
2022-09-20T05:01:35.863Z,2.03
2022-09-20T05:04:30.437Z,2.00
2022-09-20T05:07:19.528Z,2.30
2022-09-20T05:10:15.637Z,1.90
2022-09-20T05:12:54.675Z,1.75
2022-09-20T05:15:23.004Z,2.10
2022-09-20T05:18:09.968Z,1.75
2022-09-20T05:21:12.018Z,1.90
2022-09-20T05:23:45.605Z,1.65
2022-09-20T05:26:36.353Z,1.80
2022-09-20T05:29:10.220Z,1.80
2022-09-20T05:31:40.997Z,1.70
2022-09-20T05:34:15.717Z,1.63
2022-09-20T05:37:01.310Z,1.70
2022-09-20T05:39:45.998Z,1.60
2022-09-20T05:44:55.325Z,2.25
2022-09-20T05:47:43.749Z,2.10
2022-09-20T05:50:23.741Z,1.92
2022-09-20T05:52:58.534Z,1.65
2022-09-20T05:55:52.506Z,1.80
2022-09-20T05:58:38.853Z,2.15
2022-09-20T06:01:24.964Z,1.90
2022-09-20T06:04:08.201Z,2.05
2022-09-20T06:06:58.600Z,2.10
2022-09-20T06:09:25.548Z,1.77
2022-09-20T06:12:31.556Z,2.00
2022-09-20T06:15:04.905Z,1.88
2022-09-20T06:17:58.207Z,2.17
2022-09-20T06:20:35.737Z,2.10
2022-09-20T06:23:04.139Z,2.10
2022-09-20T06:25:42.968Z,2.00
2022-09-20T06:28:34.190Z,1.92
2022-09-20T06:31:01.885Z,1.58
2022-09-20T06:33:29.066Z,1.60
2022-09-20T06:36:21.884Z,1.75
2022-09-20T06:39:48.329Z,2.10
2022-09-20T06:42:15.256Z,1.70
2022-09-20T06:44:43.388Z,1.50
2022-09-20T06:47:10.920Z,1.65
2022-09-20T06:49:37.911Z,1.70
2022-09-20T06:52:05.850Z,1.92
2022-09-20T06:54:32.853Z,1.70
2022-09-20T06:57:02.900Z,1.67
2022-09-20T06:59:29.775Z,1.67
2022-09-20T07:01:56.749Z,1.48
2022-09-20T07:04:26.686Z,1.77
2022-09-20T07:07:00.471Z,1.73
2022-09-20T07:09:28.277Z,1.75
2022-09-20T07:11:56.090Z,1.70
2022-09-20T07:14:23.305Z,1.60
2022-09-20T07:16:50.381Z,1.80
2022-09-20T07:19:17.305Z,1.42
2022-09-20T07:21:44.343Z,1.70
2022-09-20T07:24:11.342Z,1.63
2022-09-20T07:26:39.147Z,1.58
2022-09-20T07:29:07.994Z,1.90
2022-09-20T07:31:35.069Z,1.42
2022-09-20T07:34:01.961Z,1.88
2022-09-20T07:36:29.373Z,1.40
2022-09-20T07:38:56.412Z,1.80
2022-09-20T07:41:23.320Z,5.82
2022-09-20T07:43:51.131Z,4.78
2022-09-20T07:46:18.243Z,4.43
2022-09-20T07:48:45.148Z,4.05
2022-09-20T07:51:13.064Z,3.42
2022-09-20T07:53:40.136Z,3.00
2022-09-20T07:56:07.887Z,3.05
2022-09-20T07:58:35.249Z,2.50
2022-09-20T08:01:04.371Z,2.50
2022-09-20T08:03:31.811Z,2.40
2022-09-20T08:06:05.969Z,2.35
2022-09-20T08:08:36.581Z,2.33
2022-09-20T08:11:05.524Z,2.40
2022-09-20T08:16:36.627Z,1.80
2022-09-20T08:19:03.544Z,1.83
2022-09-20T08:21:32.154Z,1.40
2022-09-20T08:23:59.349Z,1.42
2022-09-20T08:26:27.276Z,1.30
2022-09-20T08:28:55.642Z,1.20
2022-09-20T08:31:24.383Z,1.50
2022-09-20T08:33:52.014Z,1.30
2022-09-20T08:36:24.442Z,1.40
2022-09-20T08:42:12.504Z,1.30
2022-09-20T08:44:57.838Z,1.10
2022-09-20T08:47:29.895Z,1.10
2022-09-20T08:49:57.441Z,1.10
2022-09-20T08:52:37.913Z,1.00
2022-09-20T08:55:19.921Z,1.10
2022-09-20T08:57:51.092Z,0.95
2022-09-20T09:00:20.394Z,1.38
2022-09-20T09:02:47.507Z,1.30
2022-09-20T09:05:32.735Z,1.42
2022-09-20T09:08:00.792Z,1.23
2022-09-20T09:10:45.366Z,1.20
2022-09-20T09:13:20.697Z,1.15
2022-09-20T09:15:49.285Z,1.10
2022-09-20T09:18:16.190Z,1.10
2022-09-20T09:20:46.869Z,1.20
2022-09-20T09:23:25.889Z,1.20
2022-09-20T09:25:53.919Z,1.23
2022-09-20T09:28:24.019Z,1.17
2022-09-20T09:30:50.997Z,1.27
2022-09-20T09:33:31.079Z,1.30
2022-09-20T09:36:04.235Z,1.20
2022-09-20T09:38:33.076Z,1.30
2022-09-20T09:41:01.574Z,1.20
2022-09-20T09:43:33.240Z,1.25
2022-09-20T09:46:21.542Z,1.20
2022-09-20T09:49:11.673Z,1.30
2022-09-20T09:51:42.455Z,1.00
2022-09-20T09:54:18.232Z,1.00
2022-09-20T09:57:22.673Z,1.20
2022-09-20T10:00:18.411Z,1.10
2022-09-20T10:03:14.821Z,1.00
2022-09-20T10:05:46.656Z,1.00
2022-09-20T10:08:35.465Z,0.90
2022-09-20T10:11:20.919Z,1.40
2022-09-20T10:13:54.032Z,1.20
2022-09-20T10:17:05.298Z,1.20
2022-09-20T10:20:09.695Z,1.00
2022-09-20T10:23:30.029Z,1.63
2022-09-20T10:26:12.037Z,1.52
2022-09-20T10:28:48.523Z,1.73
2022-09-20T10:31:44.107Z,1.45
2022-09-20T10:34:23.352Z,1.70
2022-09-20T10:36:58.336Z,2.00
2022-09-20T10:39:35.684Z,1.70
2022-09-20T10:42:53.387Z,1.80
2022-09-20T10:45:55.994Z,1.80
2022-09-20T10:51:00.351Z,1.50
2022-09-20T10:53:53.622Z,1.50
2022-09-20T10:56:33.672Z,1.40
2022-09-20T10:59:19.341Z,1.70
2022-09-20T11:01:58.272Z,1.60
2022-09-20T11:04:32.868Z,1.63
2022-09-20T11:09:35.752Z,1.60
2022-09-20T11:12:16.599Z,1.75
2022-09-20T11:15:04.613Z,2.03
2022-09-20T11:17:40.505Z,1.50
2022-09-20T11:20:20.786Z,1.80
2022-09-20T11:22:55.916Z,1.50
2022-09-20T11:25:44.578Z,1.70
2022-09-20T11:28:20.623Z,1.60
2022-09-20T11:30:55.840Z,1.75
2022-09-20T11:33:27.099Z,1.70
2022-09-20T11:36:04.755Z,1.42
2022-09-20T11:38:50.833Z,1.70
2022-09-20T11:41:30.165Z,1.40
2022-09-20T11:44:00.957Z,1.50
2022-09-20T11:46:30.142Z,1.75
2022-09-20T11:49:11.949Z,1.42
2022-09-20T11:51:57.163Z,1.80
2022-09-20T11:54:57.697Z,1.40
2022-09-20T11:57:24.690Z,1.42
2022-09-20T12:00:04.642Z,1.60
2022-09-20T12:02:45.263Z,1.50
2022-09-20T12:05:35.458Z,1.20
2022-09-20T12:08:04.362Z,2.03
2022-09-20T12:10:34.745Z,1.65
2022-09-20T12:13:28.066Z,1.73
2022-09-20T12:16:28.438Z,1.30
2022-09-20T12:18:56.385Z,1.40
2022-09-20T12:21:23.428Z,1.38
2022-09-20T12:23:53.580Z,2.10
2022-09-20T12:26:21.005Z,1.25
2022-09-20T12:28:58.973Z,1.02
2022-09-20T12:31:29.805Z,0.90
2022-09-20T12:34:03.385Z,1.25
2022-09-20T12:36:36.381Z,1.00
2022-09-20T12:39:11.023Z,1.10
2022-09-20T12:41:54.465Z,1.30
2022-09-20T12:44:37.317Z,0.90
2022-09-20T12:47:09.944Z,0.82
2022-09-20T12:50:04.237Z,1.05
2022-09-20T12:52:58.717Z,1.00
2022-09-20T12:55:30.112Z,1.13
2022-09-20T12:57:58.875Z,1.08
2022-09-20T13:00:40.880Z,1.30
2022-09-20T13:03:27.206Z,1.10
2022-09-20T13:06:06.305Z,1.20
2022-09-20T13:08:40.056Z,1.20
2022-09-20T13:11:06.959Z,1.20
2022-09-20T13:13:35.875Z,1.10
2022-09-20T13:16:05.793Z,1.17
2022-09-20T13:18:33.528Z,1.00
2022-09-20T13:21:06.114Z,1.00
2022-09-20T13:23:37.574Z,1.20
2022-09-20T13:26:05.693Z,0.93
2022-09-20T13:28:35.365Z,0.88
2022-09-20T13:31:20.806Z,1.90
2022-09-20T13:33:48.342Z,1.60
2022-09-20T13:36:15.376Z,1.30
2022-09-20T13:38:43.448Z,1.20
2022-09-20T13:41:13.409Z,1.00
2022-09-20T13:43:44.451Z,1.23
2022-09-20T13:46:17.030Z,1.10
2022-09-20T13:48:47.618Z,1.10
2022-09-20T13:51:25.371Z,0.93
2022-09-20T13:53:52.516Z,1.15
2022-09-20T13:56:28.850Z,0.98
2022-09-20T13:58:58.921Z,1.10
2022-09-20T14:01:33.614Z,1.10
2022-09-20T14:04:17.901Z,1.10
2022-09-20T14:06:45.008Z,1.10
2022-09-20T14:09:23.579Z,0.90
2022-09-20T14:11:50.505Z,1.10
2022-09-20T14:14:21.881Z,0.93
2022-09-20T14:16:49.337Z,1.05
2022-09-20T14:19:18.296Z,0.90
2022-09-20T14:21:45.127Z,0.90
2022-09-20T14:24:14.924Z,1.02
2022-09-20T14:26:42.520Z,0.93
2022-09-20T14:29:27.858Z,1.00
2022-09-20T14:31:54.822Z,0.80
2022-09-20T14:34:21.694Z,0.90
2022-09-20T14:36:49.132Z,0.90
2022-09-20T14:39:17.135Z,0.95
2022-09-20T14:41:45.787Z,1.00
2022-09-20T14:44:23.620Z,1.23
2022-09-20T14:46:50.743Z,0.93
2022-09-20T14:49:23.889Z,0.85
2022-09-20T14:51:51.320Z,0.90
2022-09-20T14:54:28.157Z,0.90
2022-09-20T14:56:57.516Z,1.00
2022-09-20T14:59:25.857Z,0.75
2022-09-20T15:02:03.525Z,0.93
2022-09-20T15:04:32.747Z,0.90
2022-09-20T15:07:06.700Z,0.80
2022-09-20T15:09:33.686Z,0.82
2022-09-20T15:12:01.404Z,0.82
2022-09-20T15:14:28.442Z,0.90
2022-09-20T15:16:55.463Z,0.90
2022-09-20T15:19:22.499Z,0.70
2022-09-20T15:21:49.460Z,0.90
2022-09-20T15:24:17.856Z,0.80
2022-09-20T15:26:45.326Z,0.73
2022-09-20T15:29:16.876Z,0.80
2022-09-20T15:31:45.006Z,0.80
2022-09-20T15:34:12.954Z,0.80
2022-09-20T15:36:40.897Z,1.00
2022-09-20T15:39:08.357Z,0.90
2022-09-20T15:41:35.755Z,0.93
2022-09-20T15:44:06.603Z,0.90
2022-09-20T15:46:33.613Z,1.10
2022-09-20T15:49:02.611Z,0.88
2022-09-20T15:51:30.533Z,1.05
2022-09-20T15:54:01.529Z,0.90
2022-09-20T15:56:30.462Z,0.70
2022-09-20T15:59:01.613Z,0.90
2022-09-20T16:01:30.065Z,1.00
2022-09-20T16:03:56.966Z,0.90
2022-09-20T16:06:24.046Z,1.10
2022-09-20T16:08:51.023Z,2.17
2022-09-20T16:11:22.895Z,2.80
2022-09-20T16:13:54.025Z,2.65
2022-09-20T16:16:21.030Z,2.90
2022-09-20T16:19:06.763Z,2.35
2022-09-20T16:21:33.853Z,2.30
2022-09-20T16:24:00.910Z,2.28
2022-09-20T16:26:28.230Z,2.17
2022-09-20T16:28:55.826Z,2.58
2022-09-20T16:31:35.435Z,2.13
2022-09-20T16:34:03.806Z,2.20
2022-09-20T16:36:33.738Z,2.38
2022-09-20T16:39:01.266Z,2.08
2022-09-20T16:41:28.669Z,2.13
2022-09-20T16:43:55.804Z,2.10
2022-09-20T16:46:25.267Z,2.10
2022-09-20T16:48:53.793Z,2.35
2022-09-20T16:51:24.059Z,2.28
2022-09-20T16:53:53.946Z,2.22
2022-09-20T16:56:28.832Z,2.17
2022-09-20T16:58:55.918Z,2.20
2022-09-20T17:01:23.162Z,2.35
2022-09-20T17:03:50.112Z,2.17
2022-09-20T17:06:17.026Z,2.40
2022-09-20T17:08:44.919Z,2.40
2022-09-20T17:11:16.794Z,2.47
2022-09-20T17:13:45.040Z,2.17
2022-09-20T17:16:13.311Z,2.30
2022-09-20T17:18:41.989Z,2.42
2022-09-20T17:21:16.571Z,2.28
2022-09-20T17:23:50.781Z,2.17
2022-09-20T17:26:20.059Z,2.42
2022-09-20T17:28:47.968Z,2.60
2022-09-20T17:31:16.379Z,2.33
2022-09-20T17:33:43.353Z,2.55
2022-09-20T17:36:13.404Z,2.58
2022-09-20T17:38:40.508Z,2.47
2022-09-20T17:41:15.167Z,2.70
2022-09-20T17:43:42.311Z,3.15
2022-09-20T17:46:25.678Z,2.60
2022-09-20T17:49:00.576Z,3.05
2022-09-20T17:51:34.123Z,3.00
2022-09-20T17:54:01.081Z,2.92
2022-09-20T17:56:31.326Z,2.90
2022-09-20T17:58:59.075Z,2.92
2022-09-20T18:01:27.312Z,2.90
2022-09-20T18:03:56.206Z,3.03
2022-09-20T18:06:46.917Z,2.92
2022-09-20T18:09:21.204Z,2.80
2022-09-20T18:11:49.963Z,2.83
2022-09-20T18:14:18.122Z,2.78
2022-09-20T18:16:45.006Z,2.88
2022-09-20T18:19:12.197Z,2.92
2022-09-20T18:21:39.260Z,2.72
2022-09-20T18:24:06.964Z,2.92
2022-09-20T18:26:34.124Z,3.13
2022-09-20T18:29:11.167Z,2.80
2022-09-20T18:31:47.768Z,2.85
2022-09-20T18:34:19.018Z,2.65
2022-09-20T18:36:53.164Z,2.75
2022-09-20T18:39:24.192Z,3.00
2022-09-20T18:41:51.290Z,2.47
2022-09-20T18:44:21.229Z,2.80
2022-09-20T18:46:48.661Z,2.85
2022-09-20T18:49:16.896Z,2.88
2022-09-20T18:51:44.071Z,2.67
2022-09-20T18:54:11.121Z,2.75
2022-09-20T18:56:39.431Z,2.70
2022-09-20T18:59:07.347Z,2.50
2022-09-20T19:01:42.929Z,2.60
2022-09-20T19:04:34.712Z,2.58
2022-09-20T19:07:10.367Z,2.80
2022-09-20T19:09:46.014Z,2.63
2022-09-20T19:12:34.354Z,2.85
2022-09-20T19:15:04.859Z,2.60
2022-09-20T19:18:01.609Z,2.55
2022-09-20T19:20:55.457Z,2.40
2022-09-20T19:24:03.147Z,2.80
2022-09-20T19:26:37.941Z,2.63
2022-09-20T19:29:19.079Z,2.60
2022-09-20T19:31:50.499Z,2.58
2022-09-20T19:34:22.739Z,2.67
2022-09-20T19:37:00.356Z,2.85
2022-09-20T19:39:34.491Z,2.65
2022-09-20T19:42:08.340Z,2.65
2022-09-20T19:45:02.187Z,2.55
2022-09-20T19:47:47.300Z,2.80
2022-09-20T19:50:25.279Z,2.60
2022-09-20T19:52:52.306Z,2.63
2022-09-20T19:55:20.282Z,2.13
2022-09-20T19:57:47.533Z,2.45
2022-09-20T20:00:15.699Z,2.72
2022-09-20T20:02:43.637Z,2.65
2022-09-20T20:05:15.903Z,2.30
2022-09-20T20:08:13.044Z,2.40
2022-09-20T20:11:01.194Z,2.65
2022-09-20T20:14:03.567Z,2.70
2022-09-20T20:16:30.390Z,2.38
2022-09-20T20:19:20.125Z,2.78
2022-09-20T20:21:55.164Z,2.53
2022-09-20T20:24:45.163Z,2.78
2022-09-20T20:27:12.063Z,2.63
2022-09-20T20:29:38.912Z,2.55
2022-09-20T20:32:06.138Z,2.60
2022-09-20T20:34:34.325Z,2.55
2022-09-20T20:37:01.154Z,2.50
2022-09-20T20:39:29.690Z,2.60
2022-09-20T20:42:01.806Z,2.40
2022-09-20T20:44:30.238Z,2.38
2022-09-20T20:46:57.127Z,2.60
2022-09-20T20:49:24.698Z,2.70
2022-09-20T20:51:51.712Z,2.47
2022-09-20T20:54:18.584Z,2.20
2022-09-20T20:56:45.461Z,2.63
2022-09-20T20:59:12.322Z,2.15
2022-09-20T21:01:42.890Z,2.65
2022-09-20T21:04:11.324Z,2.50
2022-09-20T21:06:40.688Z,2.47
2022-09-20T21:09:08.525Z,2.60
2022-09-20T21:11:39.552Z,2.40
2022-09-20T21:14:07.373Z,2.35
2022-09-20T21:16:35.912Z,2.22
2022-09-20T21:19:03.898Z,2.13
2022-09-20T21:21:35.498Z,2.40
2022-09-20T21:24:03.757Z,2.47
2022-09-20T21:26:34.356Z,2.60
2022-09-20T21:29:03.073Z,2.53
2022-09-20T21:31:31.420Z,2.35
2022-09-20T21:33:58.331Z,2.35
2022-09-20T21:36:26.632Z,2.35
2022-09-20T21:38:53.826Z,2.47
2022-09-20T21:41:22.487Z,2.10
2022-09-20T21:43:53.147Z,2.35
2022-09-20T21:46:25.774Z,2.80
2022-09-20T21:48:53.318Z,2.60
2022-09-20T21:51:20.497Z,2.50
2022-09-20T21:53:48.360Z,2.60
2022-09-20T21:56:17.491Z,2.30
2022-09-20T21:58:45.178Z,2.30
2022-09-20T22:01:19.245Z,2.58
2022-09-20T22:03:50.370Z,2.55
2022-09-20T22:06:21.488Z,2.55
2022-09-20T22:09:15.238Z,2.60
2022-09-20T22:11:44.369Z,2.42
2022-09-20T22:14:11.935Z,2.88
2022-09-20T22:16:43.164Z,2.65
2022-09-20T22:19:11.663Z,2.60
2022-09-20T22:21:46.034Z,2.88
2022-09-20T22:24:13.728Z,2.75
2022-09-20T22:26:42.856Z,2.65
2022-09-20T22:29:09.933Z,2.78
2022-09-20T22:31:39.021Z,2.60
2022-09-20T22:34:07.218Z,2.50
2022-09-20T22:36:35.697Z,2.58
2022-09-20T22:39:03.643Z,2.65
2022-09-20T22:41:30.470Z,2.60
2022-09-20T22:43:57.339Z,2.60
2022-09-20T22:46:25.902Z,2.42
2022-09-20T22:48:52.799Z,2.55
2022-09-20T22:51:21.246Z,2.67
2022-09-20T22:53:48.322Z,2.65
2022-09-20T22:56:16.169Z,2.47
2022-09-20T22:58:45.068Z,2.45
2022-09-20T23:01:21.853Z,2.65
2022-09-20T23:03:57.420Z,2.60
2022-09-20T23:06:32.813Z,2.50
2022-09-20T23:09:00.787Z,2.30
2022-09-20T23:11:28.142Z,2.20
2022-09-20T23:13:56.572Z,2.50
2022-09-20T23:16:25.229Z,2.50
2022-09-20T23:18:52.615Z,2.20
2022-09-20T23:21:19.592Z,2.20
2022-09-20T23:23:48.054Z,2.33
2022-09-20T23:26:17.142Z,2.33
2022-09-20T23:28:45.841Z,2.33
2022-09-20T23:31:16.406Z,2.15
2022-09-20T23:33:48.250Z,2.40
2022-09-20T23:36:16.139Z,2.35
2022-09-20T23:38:43.012Z,2.40
2022-09-20T23:41:11.133Z,2.22
2022-09-20T23:43:38.040Z,2.10
2022-09-20T23:46:05.332Z,2.15
2022-09-20T23:48:32.433Z,2.10
2022-09-20T23:50:59.310Z,2.30
2022-09-20T23:53:26.145Z,2.00
2022-09-20T23:55:53.047Z,2.15
2022-09-20T23:58:19.852Z,2.35
